Time;durP1;ratioP1;P1;durP2;ratioP2;P2;SDS_P1;SDS_P2;PMS_P1;PMS_P2;Temp;Humidity;BMP_temperature;BMP_pressure;BME280_temperature;BME280_humidity;BME280_pressure;Samples;Min_cycle;Max_cycle;Signal;HPM_P1;HPM_P2
2023/11/12 00:03:21;;;;;;;8.40;6.38;;;;;;;;;;10240187;28;20028;-63
2023/11/12 00:08:22;;;;;;;6.72;5.95;;;;;;;;;;10222424;28;20027;-62
2023/11/12 00:13:23;;;;;;;6.63;5.70;;;;;;;;;;10234839;28;20039;-63
2023/11/12 00:18:24;;;;;;;9.48;6.28;;;;;;;;;;10233513;28;20471;-63
2023/11/12 00:23:24;;;;;;;7.40;5.50;;;;;;;;;;10252330;28;20027;-63
2023/11/12 00:28:25;;;;;;;7.97;5.97;;;;;;;;;;10248879;28;20031;-62
2023/11/12 00:33:27;;;;;;;7.90;5.80;;;;;;;;;;10231532;28;20415;-62
2023/11/12 00:38:27;;;;;;;7.57;6.28;;;;;;;;;;10257234;28;20049;-62
2023/11/12 00:43:28;;;;;;;6.47;5.55;;;;;;;;;;10248262;28;20023;-62
2023/11/12 00:48:29;;;;;;;7.72;5.95;;;;;;;;;;10255536;28;20055;-62
2023/11/12 00:53:30;;;;;;;10.55;6.10;;;;;;;;;;10241386;28;20035;-63
2023/11/12 00:58:31;;;;;;;17.13;6.07;;;;;;;;;;10252495;28;20105;-64
2023/11/12 01:03:32;;;;;;;9.32;5.68;;;;;;;;;;10253409;28;20039;-63
2023/11/12 01:08:34;;;;;;;18.80;5.80;;;;;;;;;;10253367;28;20522;-64
2023/11/12 01:13:34;;;;;;;6.95;5.70;;;;;;;;;;10250597;28;20062;-61
2023/11/12 01:18:35;;;;;;;8.80;5.93;;;;;;;;;;10252416;28;20031;-62
2023/11/12 01:23:36;;;;;;;10.88;5.50;;;;;;;;;;10253627;28;20035;-63
2023/11/12 01:28:37;;;;;;;9.80;5.45;;;;;;;;;;10253051;28;20031;-62
2023/11/12 01:33:37;;;;;;;7.95;5.15;;;;;;;;;;10256136;28;20036;-64
2023/11/12 01:38:38;;;;;;;8.40;5.07;;;;;;;;;;10255570;28;20030;-62
2023/11/12 01:43:38;;;;;;;16.80;5.97;;;;;;;;;;10252317;28;20039;-62
2023/11/12 01:48:39;;;;;;;12.32;5.05;;;;;;;;;;10253132;28;20042;-62
2023/11/12 01:53:41;;;;;;;6.38;5.15;;;;;;;;;;10258418;28;20475;-63
2023/11/12 01:58:43;;;;;;;10.10;4.97;;;;;;;;;;10250173;28;20063;-62
2023/11/12 02:03:44;;;;;;;10.75;4.90;;;;;;;;;;10239079;28;20056;-62
2023/11/12 02:08:45;;;;;;;7.47;5.28;;;;;;;;;;10259195;28;20122;-62
2023/11/12 02:13:46;;;;;;;6.65;4.85;;;;;;;;;;10242324;29;20407;-63
2023/11/12 02:18:47;;;;;;;6.78;4.85;;;;;;;;;;10247498;29;20166;-63
2023/11/12 02:23:48;;;;;;;9.48;4.88;;;;;;;;;;10238830;28;20061;-65
2023/11/12 02:28:48;;;;;;;6.32;4.60;;;;;;;;;;10239809;28;20028;-61
2023/11/12 02:33:49;;;;;;;7.43;4.78;;;;;;;;;;10241697;28;20050;-61
2023/11/12 02:38:51;;;;;;;5.60;4.50;;;;;;;;;;10235715;28;20098;-61
2023/11/12 02:43:52;;;;;;;6.55;4.30;;;;;;;;;;10222203;28;20024;-61
2023/11/12 02:49:07;;;;;;;6.15;4.93;;;;;;;;;;10231628;29;20028;-61
2023/11/12 02:54:08;;;;;;;4.53;4.13;;;;;;;;;;10237965;29;20130;-62
2023/11/12 02:59:08;;;;;;;7.95;4.47;;;;;;;;;;10241897;28;20031;-62
2023/11/12 03:04:09;;;;;;;7.07;3.95;;;;;;;;;;10235403;28;20027;-63
2023/11/12 03:09:10;;;;;;;6.47;4.95;;;;;;;;;;10240898;28;20035;-62
2023/11/12 03:14:12;;;;;;;4.90;3.95;;;;;;;;;;10239043;28;20032;-62
2023/11/12 03:19:12;;;;;;;5.40;4.20;;;;;;;;;;10230058;28;20114;-62
2023/11/12 03:24:13;;;;;;;5.18;3.90;;;;;;;;;;10230214;28;20388;-62
2023/11/12 03:29:13;;;;;;;6.03;3.53;;;;;;;;;;10223638;28;20371;-61
2023/11/12 03:34:15;;;;;;;4.40;3.67;;;;;;;;;;10207992;28;20384;-62
2023/11/12 03:39:17;;;;;;;4.53;3.70;;;;;;;;;;10226457;28;20070;-62
2023/11/12 03:44:18;;;;;;;4.55;3.90;;;;;;;;;;10227423;28;20034;-62
2023/11/12 03:49:19;;;;;;;4.38;3.38;;;;;;;;;;10244618;28;20400;-62
2023/11/12 03:54:19;;;;;;;6.78;4.10;;;;;;;;;;10236942;28;20051;-61
2023/11/12 03:59:20;;;;;;;3.92;3.53;;;;;;;;;;10231311;29;20419;-61
2023/11/12 04:04:21;;;;;;;6.00;3.97;;;;;;;;;;10234975;28;20387;-61
2023/11/12 04:09:21;;;;;;;3.75;3.40;;;;;;;;;;10233704;28;20411;-62
2023/11/12 04:14:22;;;;;;;4.30;3.40;;;;;;;;;;10232751;28;20133;-63
2023/11/12 04:19:24;;;;;;;5.72;4.00;;;;;;;;;;10239110;28;20399;-62
2023/11/12 04:24:26;;;;;;;4.72;3.50;;;;;;;;;;10232462;28;20028;-60
2023/11/12 04:29:28;;;;;;;3.97;3.58;;;;;;;;;;10228146;28;20118;-61
2023/11/12 04:34:28;;;;;;;3.65;3.25;;;;;;;;;;10226454;28;20090;-60
2023/11/12 04:39:29;;;;;;;4.30;3.45;;;;;;;;;;10220019;28;20042;-59
2023/11/12 04:44:31;;;;;;;4.00;3.53;;;;;;;;;;10232943;28;20075;-60
2023/11/12 04:49:32;;;;;;;3.90;3.33;;;;;;;;;;10234659;28;20043;-60
2023/11/12 04:54:33;;;;;;;7.10;3.33;;;;;;;;;;10237384;28;20070;-60
2023/11/12 04:59:33;;;;;;;3.65;3.25;;;;;;;;;;10239584;28;20050;-61
2023/11/12 05:04:34;;;;;;;3.63;3.03;;;;;;;;;;10236409;28;20027;-60
2023/11/12 05:09:35;;;;;;;5.05;3.20;;;;;;;;;;10248818;28;20403;-60
2023/11/12 05:14:36;;;;;;;4.13;3.22;;;;;;;;;;10244854;28;20465;-61
2023/11/12 05:19:36;;;;;;;3.30;3.00;;;;;;;;;;10226336;28;20042;-60
2023/11/12 05:24:38;;;;;;;4.57;3.00;;;;;;;;;;10235943;28;20464;-60
2023/11/12 05:29:39;;;;;;;4.05;3.25;;;;;;;;;;10233131;28;20112;-60
2023/11/12 05:34:39;;;;;;;2.83;2.60;;;;;;;;;;10215786;28;20148;-65
2023/11/12 05:39:40;;;;;;;4.18;3.35;;;;;;;;;;10220781;28;20036;-64
2023/11/12 05:44:41;;;;;;;3.55;2.88;;;;;;;;;;10236058;29;20035;-60
2023/11/12 05:49:42;;;;;;;4.35;3.17;;;;;;;;;;10231236;28;20024;-60
2023/11/12 05:54:43;;;;;;;5.38;2.92;;;;;;;;;;10235347;28;20039;-61
2023/11/12 05:59:43;;;;;;;3.08;2.78;;;;;;;;;;10232277;28;20440;-61
2023/11/12 06:04:44;;;;;;;8.05;2.67;;;;;;;;;;10246754;28;20023;-63
2023/11/12 06:09:46;;;;;;;3.72;2.90;;;;;;;;;;10247452;28;20034;-63
2023/11/12 06:14:46;;;;;;;4.63;2.92;;;;;;;;;;10242060;28;20039;-65
2023/11/12 06:19:48;;;;;;;2.95;2.65;;;;;;;;;;10243944;28;20027;-63
2023/11/12 06:24:48;;;;;;;4.93;2.80;;;;;;;;;;10231320;28;20059;-62
2023/11/12 06:29:50;;;;;;;3.30;3.00;;;;;;;;;;10228168;28;20109;-64
2023/11/12 06:34:51;;;;;;;5.07;2.65;;;;;;;;;;10223191;28;20031;-65
2023/11/12 06:39:51;;;;;;;10.13;2.90;;;;;;;;;;10238584;28;20044;-62
2023/11/12 06:44:52;;;;;;;4.05;2.80;;;;;;;;;;10228577;28;20035;-62
2023/11/12 06:49:52;;;;;;;3.63;2.65;;;;;;;;;;10244601;28;20043;-62
2023/11/12 06:54:53;;;;;;;3.20;2.90;;;;;;;;;;10242898;28;20394;-62
2023/11/12 06:59:53;;;;;;;3.08;2.78;;;;;;;;;;10228764;28;20468;-63
2023/11/12 07:04:54;;;;;;;3.40;2.60;;;;;;;;;;10223122;28;20035;-64
2023/11/12 07:09:56;;;;;;;3.10;2.60;;;;;;;;;;10243663;28;20093;-63
2023/11/12 07:14:57;;;;;;;2.97;2.42;;;;;;;;;;10230783;28;20392;-63
2023/11/12 07:19:58;;;;;;;2.58;2.38;;;;;;;;;;10223897;28;20039;-63
2023/11/12 07:24:58;;;;;;;2.95;2.55;;;;;;;;;;10235306;28;20023;-60
2023/11/12 07:29:59;;;;;;;3.72;2.60;;;;;;;;;;10220623;28;20095;-61
2023/11/12 07:35:01;;;;;;;2.63;2.42;;;;;;;;;;10238349;28;20043;-66
2023/11/12 07:40:10;;;;;;;3.22;2.72;;;;;;;;;;10218466;28;20046;-65
2023/11/12 07:45:11;;;;;;;2.65;2.45;;;;;;;;;;10243286;28;20126;-65
2023/11/12 07:50:11;;;;;;;3.15;2.50;;;;;;;;;;10241623;28;20047;-62
2023/11/12 07:55:12;;;;;;;2.80;2.45;;;;;;;;;;10243927;28;20386;-62
2023/11/12 08:00:13;;;;;;;2.75;2.50;;;;;;;;;;10235492;29;20118;-64
2023/11/12 08:05:15;;;;;;;3.13;2.25;;;;;;;;;;10234650;28;20047;-63
2023/11/12 08:10:18;;;;;;;2.65;2.45;;;;;;;;;;10236177;28;20038;-65
2023/11/12 08:15:19;;;;;;;2.50;2.30;;;;;;;;;;10245228;28;20494;-65
2023/11/12 08:20:19;;;;;;;2.58;2.38;;;;;;;;;;10241616;29;20035;-64
2023/11/12 08:25:20;;;;;;;2.55;2.28;;;;;;;;;;10241618;29;20211;-64
2023/11/12 08:30:21;;;;;;;2.40;2.20;;;;;;;;;;10239476;29;20475;-65
2023/11/12 08:35:21;;;;;;;2.38;2.17;;;;;;;;;;10239257;29;20388;-65
2023/11/12 08:40:22;;;;;;;2.40;2.17;;;;;;;;;;10240628;28;20690;-65
2023/11/12 08:45:22;;;;;;;2.03;1.83;;;;;;;;;;10245894;29;20073;-64
2023/11/12 08:50:23;;;;;;;3.20;2.35;;;;;;;;;;10243817;29;20039;-65
2023/11/12 08:55:24;;;;;;;4.22;2.45;;;;;;;;;;10242980;28;20368;-63
2023/11/12 09:00:24;;;;;;;2.78;2.33;;;;;;;;;;10247376;28;20035;-62
2023/11/12 09:05:25;;;;;;;3.30;2.50;;;;;;;;;;10243318;28;20473;-64
2023/11/12 09:10:25;;;;;;;9.15;2.60;;;;;;;;;;10242646;29;20092;-62
2023/11/12 09:15:26;;;;;;;2.20;2.00;;;;;;;;;;10240371;28;21518;-62
2023/11/12 09:20:27;;;;;;;2.45;2.22;;;;;;;;;;10248459;28;20086;-61
2023/11/12 09:25:28;;;;;;;2.45;2.25;;;;;;;;;;10245665;28;20536;-62
2023/11/12 09:30:31;;;;;;;2.50;2.30;;;;;;;;;;10242476;29;20148;-63
2023/11/12 09:35:32;;;;;;;2.17;1.98;;;;;;;;;;10245156;28;20027;-60
2023/11/12 09:40:32;;;;;;;2.40;2.20;;;;;;;;;;10234279;28;20491;-60
2023/11/12 09:45:33;;;;;;;2.03;1.83;;;;;;;;;;10248981;28;20038;-60
2023/11/12 09:50:35;;;;;;;2.85;1.90;;;;;;;;;;10248990;28;20039;-61
2023/11/12 09:55:36;;;;;;;2.83;2.10;;;;;;;;;;10245400;28;20491;-63
2023/11/12 10:00:36;;;;;;;3.30;2.05;;;;;;;;;;10252775;28;20035;-64
2023/11/12 10:05:38;;;;;;;3.25;2.05;;;;;;;;;;10251564;28;20093;-62
2023/11/12 10:10:40;;;;;;;5.50;2.00;;;;;;;;;;10256748;28;20047;-65
2023/11/12 10:15:41;;;;;;;2.35;1.88;;;;;;;;;;10242230;28;20031;-63
2023/11/12 10:20:43;;;;;;;3.90;1.90;;;;;;;;;;10245465;29;20046;-62
2023/11/12 10:25:48;;;;;;;6.32;1.70;;;;;;;;;;10245531;28;20042;-64
2023/11/12 10:30:54;;;;;;;2.25;1.63;;;;;;;;;;10226821;28;20404;-63
2023/11/12 10:35:58;;;;;;;3.28;1.92;;;;;;;;;;10226264;28;20029;-63
2023/11/12 10:41:04;;;;;;;3.00;1.95;;;;;;;;;;10226021;28;20031;-64
2023/11/12 10:46:06;;;;;;;2.25;1.58;;;;;;;;;;10238126;28;20439;-63
2023/11/12 10:51:08;;;;;;;9.93;2.10;;;;;;;;;;10242139;28;20043;-62
2023/11/12 10:56:10;;;;;;;4.90;2.30;;;;;;;;;;10234318;28;20035;-62
2023/11/12 11:01:14;;;;;;;8.30;2.10;;;;;;;;;;10235910;28;20034;-62
2023/11/12 11:06:17;;;;;;;6.95;2.10;;;;;;;;;;10240965;29;20122;-62
2023/11/12 11:11:18;;;;;;;5.22;2.85;;;;;;;;;;10236995;28;20410;-62
2023/11/12 11:16:47;;;;;;;4.50;2.45;;;;;;;;;;10244391;28;20020;-62
2023/11/12 11:22:31;;;;;;;3.25;2.58;;;;;;;;;;10235232;28;20042;-62
2023/11/12 11:27:31;;;;;;;3.00;2.70;;;;;;;;;;10236103;28;20054;-62
2023/11/12 11:32:32;;;;;;;3.65;2.78;;;;;;;;;;10244393;28;20027;-62
2023/11/12 11:38:11;;;;;;;3.72;2.72;;;;;;;;;;10239610;28;20089;-62
2023/11/12 11:43:21;;;;;;;4.35;2.47;;;;;;;;;;10245912;28;20601;-62
2023/11/12 11:48:22;;;;;;;9.45;3.10;;;;;;;;;;10237438;28;20037;-63
2023/11/12 11:53:27;;;;;;;7.70;2.97;;;;;;;;;;10269794;23;20058;-56
2023/11/12 11:58:35;;;;;;;3.05;2.60;;;;;;;;;;10244944;28;20075;-58
2023/11/12 12:03:35;;;;;;;11.18;3.25;;;;;;;;;;10208194;28;20067;-54
2023/11/12 12:08:51;;;;;;;9.10;2.42;;;;;;;;;;10202129;29;20095;-57
2023/11/12 12:13:59;;;;;;;5.25;2.70;;;;;;;;;;10208957;29;20039;-52
2023/11/12 12:19:03;;;;;;;7.22;2.72;;;;;;;;;;10191501;29;20036;-60
2023/11/12 12:24:05;;;;;;;4.07;2.95;;;;;;;;;;10213691;29;20140;-56
2023/11/12 12:29:24;;;;;;;3.42;2.28;;;;;;;;;;10218291;29;20032;-57
2023/11/12 12:34:25;;;;;;;;;;;;;;;;;;10203679;29;20040;-63
2023/11/12 12:39:26;;;;;;;5.15;2.45;;;;;;;;;;10204937;29;20426;-63
2023/11/12 12:44:27;;;;;;;4.85;2.63;;;;;;;;;;10211287;29;20035;-63
2023/11/12 12:49:34;;;;;;;5.95;2.80;;;;;;;;;;10202732;28;20039;-58
2023/11/12 12:54:35;;;;;;;5.75;2.45;;;;;;;;;;10197446;29;20040;-62
2023/11/12 12:59:37;;;;;;;3.95;2.42;;;;;;;;;;10202742;29;20040;-59
2023/11/12 13:04:39;;;;;;;4.00;2.40;;;;;;;;;;10203554;29;20444;-62
2023/11/12 13:09:41;;;;;;;4.10;2.05;;;;;;;;;;10203440;29;20110;-63
2023/11/12 13:14:42;;;;;;;3.85;2.47;;;;;;;;;;10175728;28;20027;-63
2023/11/12 13:19:44;;;;;;;3.92;2.50;;;;;;;;;;10198544;29;20035;-61
2023/11/12 13:24:45;;;;;;;3.08;2.28;;;;;;;;;;10196169;29;20371;-63
2023/11/12 13:29:47;;;;;;;6.22;2.83;;;;;;;;;;10206036;29;20042;-62
2023/11/12 13:34:48;;;;;;;5.13;2.53;;;;;;;;;;10197978;29;20028;-63
2023/11/12 13:39:53;;;;;;;5.57;2.80;;;;;;;;;;10190650;29;20123;-63
2023/11/12 13:44:53;;;;;;;4.30;2.28;;;;;;;;;;10211973;29;20127;-61
2023/11/12 13:49:54;;;;;;;2.28;2.08;;;;;;;;;;10209316;29;20078;-62
2023/11/12 13:54:55;;;;;;;4.43;2.42;;;;;;;;;;10205297;29;20035;-62
2023/11/12 13:59:56;;;;;;;5.68;2.20;;;;;;;;;;10203271;29;20107;-64
2023/11/12 14:04:57;;;;;;;7.53;2.75;;;;;;;;;;10209460;29;20028;-64
2023/11/12 14:09:58;;;;;;;13.02;2.78;;;;;;;;;;10207389;29;20488;-62
2023/11/12 14:15:00;;;;;;;3.67;2.13;;;;;;;;;;10187597;29;20028;-60
2023/11/12 14:20:05;;;;;;;4.75;2.58;;;;;;;;;;10210100;29;20036;-60
2023/11/12 14:25:10;;;;;;;3.90;2.50;;;;;;;;;;10193129;29;20115;-63
2023/11/12 14:30:13;;;;;;;5.80;2.47;;;;;;;;;;10197589;29;20039;-61
2023/11/12 14:35:16;;;;;;;3.20;2.10;;;;;;;;;;10203354;29;20037;-62
2023/11/12 14:40:17;;;;;;;4.40;2.40;;;;;;;;;;10198740;29;20488;-62
2023/11/12 14:45:18;;;;;;;5.70;2.15;;;;;;;;;;10216868;29;20178;-61
2023/11/12 14:50:20;;;;;;;8.00;2.88;;;;;;;;;;10200618;29;20040;-62
2023/11/12 14:55:22;;;;;;;7.00;2.38;;;;;;;;;;10198571;29;20032;-62
2023/11/12 15:00:30;;;;;;;3.85;2.15;;;;;;;;;;10210146;29;20066;-61
2023/11/12 15:05:32;;;;;;;4.65;2.05;;;;;;;;;;10218518;29;20110;-62
2023/11/12 15:10:33;;;;;;;5.07;2.67;;;;;;;;;;10208376;29;20043;-61
2023/11/12 15:15:34;;;;;;;3.72;1.95;;;;;;;;;;10202959;29;20511;-62
2023/11/12 15:20:35;;;;;;;2.20;1.83;;;;;;;;;;10215654;29;20114;-55
2023/11/12 15:25:38;;;;;;;3.63;2.05;;;;;;;;;;10220792;29;20040;-53
2023/11/12 15:30:38;;;;;;;2.88;2.00;;;;;;;;;;10207004;29;20031;-55
2023/11/12 15:35:39;;;;;;;3.28;2.30;;;;;;;;;;10198515;29;20027;-54
2023/11/12 15:40:39;;;;;;;4.00;2.38;;;;;;;;;;10196027;29;20051;-53
2023/11/12 15:45:40;;;;;;;3.40;2.20;;;;;;;;;;10204159;29;20043;-53
2023/11/12 15:50:43;;;;;;;2.90;2.20;;;;;;;;;;10204597;29;20062;-54
2023/11/12 15:55:44;;;;;;;3.17;1.85;;;;;;;;;;10218909;29;20039;-57
2023/11/12 16:00:44;;;;;;;2.70;2.10;;;;;;;;;;10209325;29;20042;-54
2023/11/12 16:05:45;;;;;;;4.35;2.47;;;;;;;;;;10208507;29;20035;-55
2023/11/12 16:10:46;;;;;;;5.00;2.25;;;;;;;;;;10205367;29;20031;-55
2023/11/12 16:15:46;;;;;;;3.67;2.20;;;;;;;;;;10213611;28;20471;-56
2023/11/12 16:20:47;;;;;;;3.03;2.13;;;;;;;;;;10216073;29;20119;-57
2023/11/12 16:25:49;;;;;;;3.10;2.28;;;;;;;;;;10216692;29;20556;-54
2023/11/12 16:30:49;;;;;;;4.22;2.63;;;;;;;;;;10202535;29;20030;-56
2023/11/12 16:35:50;;;;;;;5.15;2.40;;;;;;;;;;10205187;29;20039;-56
2023/11/12 16:40:50;;;;;;;2.45;2.25;;;;;;;;;;10204817;29;20046;-55
2023/11/12 16:45:51;;;;;;;4.03;2.25;;;;;;;;;;10211976;29;20093;-55
2023/11/12 16:50:52;;;;;;;3.28;2.38;;;;;;;;;;10180633;29;20047;-55
2023/11/12 16:55:54;;;;;;;3.90;2.25;;;;;;;;;;10216705;29;20023;-57
2023/11/12 17:00:55;;;;;;;3.33;2.30;;;;;;;;;;10201454;28;20035;-58
2023/11/12 17:05:55;;;;;;;2.88;2.20;;;;;;;;;;10208252;29;20036;-58
2023/11/12 17:10:56;;;;;;;3.25;2.35;;;;;;;;;;10200643;29;20042;-60
2023/11/12 17:15:57;;;;;;;3.45;2.53;;;;;;;;;;10205598;29;20053;-59
2023/11/12 17:20:57;;;;;;;10.77;2.40;;;;;;;;;;10217886;29;20389;-58
2023/11/12 17:25:58;;;;;;;4.13;2.60;;;;;;;;;;10223261;29;20082;-58
2023/11/12 17:30:59;;;;;;;2.80;2.20;;;;;;;;;;10204130;29;20024;-56
2023/11/12 17:35:59;;;;;;;2.95;2.50;;;;;;;;;;10214837;29;20034;-57
2023/11/12 17:41:00;;;;;;;5.97;2.35;;;;;;;;;;10206807;29;20044;-57
2023/11/12 17:46:00;;;;;;;6.55;2.65;;;;;;;;;;10224854;29;20387;-56
2023/11/12 17:51:01;;;;;;;4.40;2.55;;;;;;;;;;10229280;29;20051;-58
2023/11/12 17:56:03;;;;;;;2.83;2.35;;;;;;;;;;10225937;28;20111;-54
2023/11/12 18:01:04;;;;;;;5.85;2.50;;;;;;;;;;10227385;28;20216;-63
2023/11/12 18:06:05;;;;;;;2.50;2.30;;;;;;;;;;10235583;28;20083;-53
2023/11/12 18:11:06;;;;;;;2.17;1.98;;;;;;;;;;10228600;29;20123;-60
2023/11/12 18:16:09;;;;;;;3.40;2.80;;;;;;;;;;10195910;29;20111;-58
2023/11/12 18:21:11;;;;;;;3.75;2.47;;;;;;;;;;10180656;29;20036;-54
2023/11/12 18:26:14;;;;;;;3.10;2.80;;;;;;;;;;10210660;29;20031;-56
2023/11/12 18:31:23;;;;;;;4.65;2.22;;;;;;;;;;10222010;29;20023;-54
2023/11/12 18:36:24;;;;;;;3.70;2.67;;;;;;;;;;10206536;29;20411;-58
2023/11/12 18:41:24;;;;;;;4.10;3.00;;;;;;;;;;10205936;29;20036;-56
2023/11/12 18:46:25;;;;;;;5.88;3.30;;;;;;;;;;10212593;29;20043;-56
2023/11/12 18:51:25;;;;;;;4.30;3.38;;;;;;;;;;10205352;29;20039;-56
2023/11/12 18:56:26;;;;;;;3.72;3.15;;;;;;;;;;10219209;29;20028;-57
2023/11/12 19:01:27;;;;;;;4.72;3.60;;;;;;;;;;10205487;29;20032;-60
2023/11/12 19:06:38;;;;;;;4.10;3.30;;;;;;;;;;10203770;29;20039;-56
2023/11/12 19:11:40;;;;;;;8.73;3.50;;;;;;;;;;10212042;29;20036;-54
2023/11/12 19:16:41;;;;;;;6.95;3.30;;;;;;;;;;10212334;29;20123;-55
2023/11/12 19:21:42;;;;;;;4.70;3.47;;;;;;;;;;10215992;29;20036;-56
2023/11/12 19:26:42;;;;;;;4.65;3.33;;;;;;;;;;10214215;29;20090;-55
2023/11/12 19:31:43;;;;;;;5.32;3.92;;;;;;;;;;10198381;29;20059;-58
2023/11/12 19:36:43;;;;;;;5.28;3.95;;;;;;;;;;10220541;28;20047;-55
2023/11/12 19:41:44;;;;;;;5.40;3.67;;;;;;;;;;10237247;28;20042;-57
2023/11/12 19:46:45;;;;;;;5.45;3.92;;;;;;;;;;10225794;29;20519;-53
2023/11/12 19:51:45;;;;;;;5.88;4.43;;;;;;;;;;10199341;28;20192;-54
2023/11/12 19:56:50;;;;;;;5.45;4.13;;;;;;;;;;10197287;29;20192;-55
2023/11/12 20:01:51;;;;;;;6.43;4.38;;;;;;;;;;10213971;29;20039;-53
2023/11/12 20:06:55;;;;;;;6.13;4.68;;;;;;;;;;10196212;29;20028;-55
2023/11/12 20:11:56;;;;;;;6.25;4.65;;;;;;;;;;10217118;29;20118;-53
2023/11/12 20:16:59;;;;;;;5.63;4.45;;;;;;;;;;10200523;28;20027;-55
2023/11/12 20:22:01;;;;;;;7.68;5.30;;;;;;;;;;10201589;29;20036;-56
2023/11/12 20:27:08;;;;;;;6.03;4.97;;;;;;;;;;10207197;29;20462;-54
2023/11/12 20:32:14;;;;;;;7.85;5.00;;;;;;;;;;10216166;29;20278;-52
2023/11/12 20:37:16;;;;;;;7.47;5.60;;;;;;;;;;10204706;29;20027;-54
2023/11/12 20:42:17;;;;;;;7.97;5.63;;;;;;;;;;10223276;29;20039;-53
2023/11/12 20:47:17;;;;;;;8.10;5.78;;;;;;;;;;10202238;29;20399;-55
2023/11/12 20:52:18;;;;;;;8.48;6.05;;;;;;;;;;10208087;29;20452;-54
2023/11/12 20:57:19;;;;;;;8.82;6.35;;;;;;;;;;10224335;29;20363;-54
2023/11/12 21:02:22;;;;;;;9.48;6.95;;;;;;;;;;10211163;29;20035;-52
2023/11/12 21:07:23;;;;;;;10.93;6.80;;;;;;;;;;10201143;29;20039;-54
2023/11/12 21:12:24;;;;;;;9.27;7.38;;;;;;;;;;10211991;29;20377;-54
2023/11/12 21:17:24;;;;;;;9.93;6.82;;;;;;;;;;10210263;29;20038;-56
2023/11/12 21:22:25;;;;;;;11.55;7.70;;;;;;;;;;10206080;29;20068;-57
2023/11/12 21:27:26;;;;;;;11.43;7.78;;;;;;;;;;10209187;29;20502;-55
2023/11/12 21:32:27;;;;;;;8.48;6.93;;;;;;;;;;10225791;29;20027;-59
2023/11/12 21:37:29;;;;;;;14.77;8.65;;;;;;;;;;10195079;29;20028;-55
2023/11/12 21:42:30;;;;;;;11.65;8.52;;;;;;;;;;10197411;29;20438;-55
2023/11/12 21:47:31;;;;;;;10.88;8.38;;;;;;;;;;10204981;29;20035;-54
2023/11/12 21:52:32;;;;;;;11.55;8.23;;;;;;;;;;10209499;29;20054;-55
2023/11/12 21:57:32;;;;;;;13.50;8.25;;;;;;;;;;10223969;28;20489;-55
2023/11/12 22:02:33;;;;;;;12.68;8.38;;;;;;;;;;10216611;28;20048;-53
2023/11/12 22:07:33;;;;;;;13.50;8.73;;;;;;;;;;10208952;29;20038;-56
2023/11/12 22:12:34;;;;;;;11.55;7.65;;;;;;;;;;10209592;29;20031;-57
2023/11/12 22:17:35;;;;;;;11.15;8.48;;;;;;;;;;10233462;29;20038;-60
2023/11/12 22:22:35;;;;;;;10.52;7.72;;;;;;;;;;10221558;29;20075;-56
2023/11/12 22:27:36;;;;;;;10.75;8.18;;;;;;;;;;10220576;29;20043;-59
2023/11/12 22:32:37;;;;;;;10.82;8.07;;;;;;;;;;10219965;29;20032;-54
2023/11/12 22:37:38;;;;;;;12.05;8.02;;;;;;;;;;10212806;29;20079;-53
2023/11/12 22:42:39;;;;;;;14.60;9.35;;;;;;;;;;10215516;28;20471;-55
2023/11/12 22:47:40;;;;;;;13.20;9.93;;;;;;;;;;10221684;29;20031;-55
2023/11/12 22:52:41;;;;;;;14.63;9.43;;;;;;;;;;10207406;29;20044;-57
2023/11/12 22:57:43;;;;;;;36.60;11.50;;;;;;;;;;10205478;29;20043;-55
2023/11/12 23:02:43;;;;;;;28.17;10.80;;;;;;;;;;10213804;29;20120;-56
2023/11/12 23:07:45;;;;;;;22.92;10.75;;;;;;;;;;10216234;29;20023;-54
2023/11/12 23:12:45;;;;;;;19.25;10.55;;;;;;;;;;10220720;29;20048;-58
2023/11/12 23:17:46;;;;;;;24.17;10.30;;;;;;;;;;10217217;29;20476;-59
2023/11/12 23:22:47;;;;;;;20.40;9.75;;;;;;;;;;10214134;28;20481;-60
2023/11/12 23:27:47;;;;;;;20.10;10.30;;;;;;;;;;10219777;29;20051;-59
2023/11/12 23:32:48;;;;;;;17.08;9.00;;;;;;;;;;10213144;29;20110;-59
2023/11/12 23:37:50;;;;;;;16.15;10.05;;;;;;;;;;10216075;29;20474;-59
2023/11/12 23:42:50;;;;;;;21.45;9.80;;;;;;;;;;10217945;29;20459;-60
2023/11/12 23:47:52;;;;;;;13.05;8.77;;;;;;;;;;10211465;29;20023;-60
2023/11/12 23:52:53;;;;;;;17.25;9.60;;;;;;;;;;10215137;29;20046;-60
2023/11/12 23:57:54;;;;;;;13.63;8.93;;;;;;;;;;10217165;29;20035;-58
